createdAt,value
2018-03-14T17:53:26.562Z,21.24
2018-03-14T17:56:06.958Z,21.31
2018-03-14T17:58:36.328Z,21.29
2018-03-14T18:01:05.389Z,21.33
2018-03-14T18:03:34.446Z,21.51
2018-03-14T18:06:03.859Z,21.68
2018-03-14T18:08:32.935Z,21.76
2018-03-14T18:11:01.996Z,21.94
2018-03-14T18:13:31.057Z,22.12
2018-03-14T18:16:00.196Z,22.27
2018-03-14T18:18:29.301Z,22.34
2018-03-14T18:20:58.355Z,22.38
2018-03-14T18:23:27.422Z,22.40
2018-03-14T18:25:56.498Z,22.47
2018-03-14T18:28:26.033Z,22.53
2018-03-14T18:30:55.414Z,22.64
2018-03-14T18:33:24.485Z,22.71
2018-03-14T18:35:54.107Z,22.84
2018-03-14T18:38:23.223Z,22.98
2018-03-14T18:40:52.293Z,23.14
2018-03-14T18:43:21.610Z,23.43
2018-03-14T18:45:50.670Z,23.53
2018-03-14T18:48:19.729Z,23.62
2018-03-14T18:50:49.213Z,23.80
2018-03-14T18:53:18.287Z,23.84
2018-03-14T18:55:47.364Z,23.96
2018-03-14T18:58:16.434Z,24.01
2018-03-14T19:00:45.497Z,24.11
2018-03-14T19:03:14.590Z,24.16
2018-03-14T19:05:44.061Z,24.27
2018-03-14T19:08:13.184Z,24.32
2018-03-14T19:10:42.246Z,24.38
2018-03-14T19:13:11.462Z,24.46
2018-03-14T19:15:40.517Z,24.51
2018-03-14T19:18:09.611Z,24.57
2018-03-14T19:20:38.705Z,24.58
2018-03-14T19:23:07.782Z,24.62
2018-03-14T19:25:36.846Z,24.74
2018-03-14T19:28:06.453Z,24.71
2018-03-14T19:30:35.511Z,24.77
2018-03-14T19:33:04.598Z,24.74
2018-03-14T19:35:33.683Z,24.80
2018-03-14T19:38:02.750Z,24.76
2018-03-14T19:40:31.804Z,24.86
2018-03-14T19:43:01.206Z,24.98
2018-03-14T19:45:30.259Z,25.04
2018-03-14T19:47:59.435Z,25.17
2018-03-14T19:50:28.511Z,25.23
2018-03-14T19:52:57.573Z,25.31
2018-03-14T19:55:26.687Z,25.38
2018-03-14T19:57:55.922Z,25.45
2018-03-14T20:00:24.977Z,25.53
2018-03-14T20:02:54.035Z,25.64
2018-03-14T20:05:23.110Z,25.60
2018-03-14T20:07:52.045Z,25.67
2018-03-14T20:10:21.106Z,25.73
2018-03-14T20:12:50.186Z,25.74
2018-03-14T20:15:19.252Z,25.79
2018-03-14T20:17:48.307Z,25.81
2018-03-14T20:20:17.802Z,25.81
2018-03-14T20:22:46.872Z,25.82
2018-03-14T20:25:15.947Z,25.85
2018-03-14T20:27:45.338Z,25.78
2018-03-14T20:30:14.394Z,25.75
2018-03-14T20:32:43.460Z,25.68
2018-03-14T20:35:12.551Z,25.67
2018-03-14T20:37:41.604Z,25.68
2018-03-14T20:40:10.667Z,25.59
2018-03-14T20:42:39.750Z,25.64
2018-03-14T20:45:08.843Z,25.69
2018-03-14T20:47:37.898Z,25.52
2018-03-14T20:50:07.295Z,25.46
2018-03-14T20:52:36.575Z,25.49
2018-03-14T20:55:05.638Z,25.37
2018-03-14T20:57:35.025Z,25.31
2018-03-14T21:00:04.086Z,25.33
2018-03-14T21:02:32.951Z,25.40
2018-03-14T21:05:02.342Z,25.34
2018-03-14T21:07:31.433Z,25.18
2018-03-14T21:10:00.487Z,25.16
2018-03-14T21:12:29.572Z,25.11
2018-03-14T21:14:58.635Z,25.08
2018-03-14T21:17:27.703Z,25.07
2018-03-14T21:19:57.146Z,25.06
2018-03-14T21:22:26.210Z,25.05
2018-03-14T21:24:55.261Z,25.05
2018-03-14T21:27:24.351Z,25.06
2018-03-14T21:29:53.409Z,25.06
2018-03-14T21:32:23.229Z,25.07
2018-03-14T21:34:53.024Z,25.06
2018-03-14T21:37:22.887Z,25.06
2018-03-14T21:39:52.150Z,25.06
2018-03-14T21:42:22.285Z,25.06
2018-03-14T21:44:51.837Z,25.03
2018-03-14T21:47:20.958Z,25.04
2018-03-14T21:49:50.238Z,25.04
2018-03-14T21:52:19.308Z,25.03
2018-03-14T21:54:48.545Z,25.04
2018-03-14T21:57:18.337Z,25.04
2018-03-14T21:59:47.430Z,25.03
2018-03-14T22:02:16.661Z,25.02
2018-03-14T22:04:45.947Z,24.99
2018-03-14T22:07:15.103Z,24.99
2018-03-14T22:09:44.174Z,24.98
2018-03-14T22:12:13.235Z,24.97
2018-03-14T22:14:42.315Z,24.96
2018-03-14T22:17:11.594Z,24.95
2018-03-14T22:19:40.646Z,24.93
2018-03-14T22:22:09.709Z,24.92
2018-03-14T22:24:39.050Z,24.90
2018-03-14T22:27:08.106Z,24.90
2018-03-14T22:29:37.160Z,24.88
2018-03-14T22:32:06.546Z,24.87
2018-03-14T22:34:35.663Z,24.86
2018-03-14T22:37:04.774Z,24.86
2018-03-14T22:39:34.019Z,24.84
2018-03-14T22:42:03.085Z,24.84
2018-03-14T22:44:32.139Z,24.82
2018-03-14T22:47:01.531Z,24.81
2018-03-14T22:49:30.806Z,24.79
2018-03-14T22:51:59.862Z,24.78
2018-03-14T22:54:28.953Z,24.77
2018-03-14T22:56:58.010Z,24.77
2018-03-14T22:59:27.074Z,24.75
2018-03-14T23:01:56.505Z,24.75
2018-03-14T23:04:25.561Z,24.75
2018-03-14T23:06:54.614Z,24.74
2018-03-14T23:09:23.993Z,24.71
2018-03-14T23:11:53.057Z,24.70
2018-03-14T23:14:22.119Z,24.68
2018-03-14T23:16:51.581Z,24.70
2018-03-14T23:19:20.642Z,24.70
2018-03-14T23:21:49.797Z,24.67
2018-03-14T23:24:19.174Z,24.66
2018-03-14T23:26:48.227Z,24.65
2018-03-14T23:29:17.269Z,24.64
2018-03-14T23:31:46.666Z,24.62
2018-03-14T23:34:15.713Z,24.62
2018-03-14T23:36:44.816Z,24.61
2018-03-14T23:39:14.164Z,24.60
2018-03-14T23:41:43.241Z,24.58
2018-03-14T23:44:12.289Z,24.58
2018-03-14T23:46:41.432Z,24.58
2018-03-14T23:49:10.670Z,24.54
2018-03-14T23:51:39.724Z,24.54
2018-03-14T23:54:09.161Z,24.54
2018-03-14T23:56:38.362Z,24.53
2018-03-14T23:59:07.428Z,24.53
